createdAt,value
2019-01-06T00:00:40.223Z,90.10
2019-01-06T00:01:40.216Z,90.62
2019-01-06T00:02:40.228Z,90.72
2019-01-06T00:03:40.227Z,89.86
2019-01-06T00:04:40.261Z,90.41
2019-01-06T00:05:40.170Z,90.31
2019-01-06T00:06:40.159Z,89.54
2019-01-06T00:07:40.170Z,89.28
2019-01-06T00:08:40.139Z,90.83
2019-01-06T00:09:40.126Z,90.10
2019-01-06T00:10:40.148Z,90.41
2019-01-06T00:11:40.123Z,91.03
2019-01-06T00:12:40.133Z,89.44
2019-01-06T00:13:40.079Z,90.37
2019-01-06T00:14:40.068Z,90.00
2019-01-06T00:15:40.094Z,90.41
2019-01-06T00:16:40.081Z,89.38
2019-01-06T00:17:40.032Z,90.20
2019-01-06T00:18:40.043Z,90.00
2019-01-06T00:19:40.018Z,89.79
2019-01-06T00:20:40.056Z,89.59
2019-01-06T00:21:40.002Z,90.72
2019-01-06T00:22:40.013Z,90.00
2019-01-06T00:23:39.994Z,91.13
2019-01-06T00:24:39.985Z,90.62
2019-01-06T00:25:39.951Z,89.79
2019-01-06T00:26:39.940Z,89.89
2019-01-06T00:27:39.940Z,90.83
2019-01-06T00:28:40.024Z,90.20
2019-01-06T00:29:39.907Z,90.26
2019-01-06T00:30:39.965Z,89.38
2019-01-06T00:31:39.881Z,90.52
2019-01-06T00:32:40.036Z,90.10
2019-01-06T00:33:39.888Z,89.69
2019-01-06T00:34:39.954Z,89.44
2019-01-06T00:35:39.894Z,89.54
2019-01-06T00:36:39.836Z,90.37
2019-01-06T00:37:39.824Z,90.52
2019-01-06T00:38:39.809Z,90.31
2019-01-06T00:39:39.829Z,90.06
2019-01-06T00:40:39.794Z,90.62
2019-01-06T00:41:39.780Z,89.69
2019-01-06T00:42:39.782Z,90.31
2019-01-06T00:43:39.754Z,89.69
2019-01-06T00:44:39.747Z,90.83
2019-01-06T00:45:39.753Z,90.10
2019-01-06T00:46:39.724Z,90.62
2019-01-06T00:47:39.738Z,90.62
2019-01-06T00:48:39.702Z,90.62
2019-01-06T00:49:39.688Z,90.72
2019-01-06T00:50:39.701Z,90.41
2019-01-06T00:51:39.673Z,91.03
2019-01-06T00:52:39.657Z,91.13
2019-01-06T00:53:39.649Z,91.65
2019-01-06T00:54:39.635Z,92.21
2019-01-06T00:55:39.664Z,92.17
2019-01-06T00:56:39.615Z,91.65
2019-01-06T00:57:39.612Z,91.86
2019-01-06T00:58:39.591Z,91.86
2019-01-06T00:59:39.579Z,91.96
2019-01-06T01:00:39.574Z,91.75
2019-01-06T01:01:39.595Z,92.07
2019-01-06T01:02:39.551Z,92.58
2019-01-06T01:03:39.539Z,92.27
2019-01-06T01:04:39.562Z,92.58
2019-01-06T01:05:39.518Z,92.00
2019-01-06T01:06:39.533Z,92.63
2019-01-06T01:07:39.498Z,92.32
2019-01-06T01:08:39.534Z,92.52
2019-01-06T01:09:39.479Z,92.00
2019-01-06T01:10:39.474Z,92.93
2019-01-06T01:11:39.455Z,93.24
2019-01-06T01:12:39.463Z,93.55
2019-01-06T01:13:39.429Z,93.66
2019-01-06T01:14:39.427Z,93.76
2019-01-06T01:15:39.417Z,93.66
2019-01-06T01:16:39.396Z,93.55
2019-01-06T01:17:39.414Z,93.55
2019-01-06T01:18:39.435Z,93.87
2019-01-06T01:19:39.369Z,93.97
2019-01-06T01:20:39.365Z,94.28
2019-01-06T01:21:39.350Z,94.59
2019-01-06T01:22:39.336Z,94.28
2019-01-06T01:23:39.387Z,94.63
2019-01-06T01:24:39.334Z,94.59
2019-01-06T01:25:39.303Z,95.36
2019-01-06T01:26:39.297Z,94.90
2019-01-06T01:27:39.287Z,95.52
2019-01-06T01:28:39.361Z,95.52
2019-01-06T01:29:39.255Z,95.25
2019-01-06T01:30:39.252Z,95.04
2019-01-06T01:31:39.257Z,95.36
2019-01-06T01:32:39.236Z,95.36
2019-01-06T01:33:39.264Z,94.84
2019-01-06T01:34:39.203Z,95.15
2019-01-06T01:35:39.219Z,95.36
2019-01-06T01:36:39.184Z,95.15
2019-01-06T01:37:39.178Z,95.25
2019-01-06T01:38:39.186Z,95.04
2019-01-06T01:39:39.152Z,95.04
2019-01-06T01:40:39.140Z,95.46
2019-01-06T01:41:39.134Z,95.56
2019-01-06T01:42:39.122Z,95.67
2019-01-06T01:43:39.108Z,95.77
2019-01-06T01:44:39.160Z,95.46
2019-01-06T01:45:39.089Z,96.19
2019-01-06T01:46:39.083Z,96.08
2019-01-06T01:47:39.067Z,95.36
2019-01-06T01:48:39.839Z,95.56
2019-01-06T01:49:39.062Z,95.46
2019-01-06T01:50:39.034Z,96.08
2019-01-06T01:51:39.054Z,95.98
2019-01-06T01:52:39.016Z,95.87
2019-01-06T01:53:39.008Z,95.77
2019-01-06T01:54:39.017Z,96.08
2019-01-06T01:55:39.014Z,95.98
2019-01-06T01:56:38.972Z,96.29
2019-01-06T01:57:38.971Z,96.08
2019-01-06T01:58:38.950Z,95.98
2019-01-06T01:59:38.943Z,95.87
2019-01-06T02:00:38.948Z,95.98
2019-01-06T02:01:38.917Z,96.08
2019-01-06T02:02:38.941Z,95.25
2019-01-06T02:03:38.899Z,95.56
2019-01-06T02:04:38.902Z,95.36
2019-01-06T02:05:38.895Z,95.46
2019-01-06T02:06:38.889Z,95.56
2019-01-06T02:07:38.862Z,95.36
2019-01-06T02:08:38.849Z,95.15
2019-01-06T02:09:38.841Z,95.56
2019-01-06T02:10:38.866Z,95.15
2019-01-06T02:11:38.814Z,95.15
2019-01-06T02:12:38.835Z,95.67
2019-01-06T02:13:38.789Z,95.67
2019-01-06T02:14:38.780Z,95.25
2019-01-06T02:15:38.778Z,95.36
2019-01-06T02:16:38.777Z,95.36
2019-01-06T02:17:38.762Z,95.77
2019-01-06T02:18:38.739Z,95.25
2019-01-06T02:19:38.760Z,95.77
2019-01-06T02:20:38.725Z,95.77
2019-01-06T02:21:38.731Z,95.46
2019-01-06T02:22:38.695Z,95.46
2019-01-06T02:23:38.723Z,95.67
2019-01-06T02:24:38.694Z,95.46
2019-01-06T02:25:38.662Z,95.25
2019-01-06T02:26:38.683Z,95.15
2019-01-06T02:27:38.654Z,95.04
2019-01-06T02:28:38.648Z,95.04
2019-01-06T02:29:38.629Z,95.46
2019-01-06T02:30:38.608Z,95.67
2019-01-06T02:31:38.616Z,95.56
2019-01-06T02:32:38.614Z,94.63
2019-01-06T02:33:38.689Z,94.73
2019-01-06T02:34:38.569Z,94.98
2019-01-06T02:35:38.563Z,95.67
2019-01-06T02:36:38.573Z,95.25
2019-01-06T02:37:38.552Z,95.56
2019-01-06T02:38:38.525Z,95.50
2019-01-06T02:39:38.555Z,95.46
2019-01-06T02:40:38.501Z,95.15
2019-01-06T02:41:38.494Z,94.94
2019-01-06T02:42:38.537Z,95.61
2019-01-06T02:43:38.472Z,95.29
2019-01-06T02:44:38.469Z,95.46
2019-01-06T02:45:38.448Z,95.15
2019-01-06T02:46:38.451Z,94.84
2019-01-06T02:47:38.476Z,94.73
2019-01-06T02:48:38.416Z,94.22
2019-01-06T02:49:38.405Z,94.73
2019-01-06T02:50:38.409Z,94.43
2019-01-06T02:51:38.405Z,94.73
2019-01-06T02:52:38.410Z,94.43
2019-01-06T02:53:38.398Z,94.22
2019-01-06T02:54:38.361Z,94.53
2019-01-06T02:55:38.374Z,94.63
2019-01-06T02:56:38.337Z,94.53
2019-01-06T02:57:38.322Z,94.63
2019-01-06T02:58:38.328Z,94.38
2019-01-06T02:59:38.302Z,94.01
2019-01-06T03:00:38.291Z,94.12
2019-01-06T03:01:38.282Z,94.22
2019-01-06T03:02:38.269Z,93.60
2019-01-06T03:03:38.284Z,94.43
2019-01-06T03:04:38.245Z,94.12
2019-01-06T03:05:38.247Z,94.01
2019-01-06T03:06:38.235Z,94.12
2019-01-06T03:07:38.213Z,94.32
2019-01-06T03:08:38.207Z,93.70
2019-01-06T03:09:38.220Z,93.70
2019-01-06T03:10:38.185Z,93.49
2019-01-06T03:11:38.174Z,93.91
2019-01-06T03:12:38.194Z,93.49
2019-01-06T03:13:38.178Z,93.60
2019-01-06T03:14:38.160Z,93.29
2019-01-06T03:15:38.131Z,93.39
2019-01-06T03:16:38.120Z,93.29
2019-01-06T03:17:38.129Z,93.18
2019-01-06T03:18:38.105Z,93.60
2019-01-06T03:19:46.876Z,93.70
2019-01-06T03:20:38.089Z,93.60
2019-01-06T03:21:45.167Z,93.60
2019-01-06T03:22:45.599Z,93.70
2019-01-06T03:23:38.046Z,93.49
2019-01-06T03:24:46.940Z,93.39
2019-01-06T03:25:45.586Z,93.29
2019-01-06T03:26:38.037Z,93.18
2019-01-06T03:27:45.546Z,93.39
2019-01-06T03:28:45.544Z,93.18
2019-01-06T03:29:45.530Z,93.49
2019-01-06T03:30:46.571Z,92.57
2019-01-06T03:31:37.962Z,92.57
2019-01-06T03:32:37.954Z,92.77
2019-01-06T03:33:37.961Z,92.63
2019-01-06T03:34:37.961Z,92.93
2019-01-06T03:35:37.970Z,93.55
2019-01-06T03:36:37.908Z,93.66
2019-01-06T03:37:37.951Z,92.52
2019-01-06T03:38:37.889Z,92.42
2019-01-06T03:39:37.884Z,92.52
2019-01-06T03:40:37.916Z,92.63
2019-01-06T03:41:37.864Z,92.42
2019-01-06T03:42:37.843Z,92.52
2019-01-06T03:43:37.841Z,92.63
2019-01-06T03:44:37.845Z,92.21
2019-01-06T03:45:37.836Z,91.90
2019-01-06T03:46:37.864Z,91.90
2019-01-06T03:47:37.792Z,91.90
2019-01-06T03:48:37.782Z,92.32
2019-01-06T03:49:37.768Z,92.32
2019-01-06T03:50:37.792Z,92.32
2019-01-06T03:51:37.767Z,92.21
2019-01-06T03:52:37.776Z,92.21
2019-01-06T03:53:37.729Z,91.80
2019-01-06T03:54:37.719Z,92.21
2019-01-06T03:55:37.704Z,92.21
2019-01-06T03:56:37.721Z,92.11
2019-01-06T03:57:37.721Z,92.11
2019-01-06T03:58:37.692Z,91.80
2019-01-06T03:59:37.677Z,92.11
2019-01-06T04:00:37.674Z,92.32
2019-01-06T04:01:37.711Z,92.32
2019-01-06T04:02:37.641Z,91.69
2019-01-06T04:03:37.620Z,91.90
2019-01-06T04:04:37.611Z,92.00
2019-01-06T04:05:37.663Z,91.49
2019-01-06T04:06:37.635Z,92.00
2019-01-06T04:07:37.577Z,92.21
2019-01-06T04:08:37.564Z,91.28
2019-01-06T04:09:37.556Z,91.28
2019-01-06T04:10:37.626Z,91.69
2019-01-06T04:11:37.561Z,91.38
2019-01-06T04:12:37.538Z,91.38
2019-01-06T04:13:37.525Z,92.21
2019-01-06T04:14:37.511Z,91.80
2019-01-06T04:15:37.499Z,91.80
2019-01-06T04:16:37.484Z,91.28
2019-01-06T04:17:37.497Z,91.49
2019-01-06T04:18:37.465Z,91.17
2019-01-06T04:19:37.457Z,91.80
2019-01-06T04:20:37.442Z,92.11
2019-01-06T04:21:37.437Z,91.28
2019-01-06T04:22:37.449Z,91.28
2019-01-06T04:23:37.424Z,91.49
2019-01-06T04:24:37.403Z,91.80
2019-01-06T04:25:37.412Z,91.80
2019-01-06T04:26:37.379Z,91.49
2019-01-06T04:27:37.432Z,91.28
2019-01-06T04:28:37.360Z,91.49
2019-01-06T04:29:37.416Z,91.17
2019-01-06T04:30:37.459Z,91.59
2019-01-06T04:31:37.339Z,91.38
2019-01-06T04:32:37.323Z,90.97
2019-01-06T04:33:37.362Z,91.07
2019-01-06T04:34:37.292Z,91.07
2019-01-06T04:35:37.284Z,91.28
2019-01-06T04:36:37.272Z,91.07
2019-01-06T04:37:37.260Z,91.59
2019-01-06T04:38:37.297Z,91.28
2019-01-06T04:39:37.237Z,91.17
2019-01-06T04:40:37.230Z,91.38
2019-01-06T04:41:37.236Z,91.38
2019-01-06T04:42:37.240Z,91.49
2019-01-06T04:43:37.234Z,91.49
2019-01-06T04:44:37.211Z,91.07
2019-01-06T04:45:37.171Z,91.28
2019-01-06T04:46:37.181Z,91.07
2019-01-06T04:47:37.162Z,91.07
2019-01-06T04:48:37.164Z,91.28
2019-01-06T04:49:37.154Z,91.38
2019-01-06T04:50:37.125Z,91.49
2019-01-06T04:51:37.110Z,91.38
2019-01-06T04:52:37.118Z,91.17
2019-01-06T04:53:37.089Z,91.17
2019-01-06T04:54:37.106Z,91.07
2019-01-06T04:55:37.073Z,91.38
2019-01-06T04:56:37.070Z,91.38
2019-01-06T04:57:37.046Z,91.59
2019-01-06T04:58:37.037Z,91.49
2019-01-06T04:59:37.034Z,91.38
2019-01-06T05:00:37.031Z,91.07
2019-01-06T05:01:37.005Z,91.17
2019-01-06T05:02:37.035Z,91.07
2019-01-06T05:03:37.001Z,91.07
2019-01-06T05:04:36.981Z,91.49
2019-01-06T05:05:36.978Z,91.49
2019-01-06T05:06:36.981Z,91.28
2019-01-06T05:07:36.981Z,91.38
2019-01-06T05:08:36.959Z,91.28
2019-01-06T05:09:36.919Z,91.07
2019-01-06T05:10:36.970Z,91.28
2019-01-06T05:11:36.903Z,91.28
2019-01-06T05:12:36.886Z,91.38
2019-01-06T05:13:36.880Z,90.87
2019-01-06T05:14:36.870Z,91.49
2019-01-06T05:15:36.854Z,91.28
2019-01-06T05:16:36.865Z,91.28
2019-01-06T05:17:36.848Z,91.49
2019-01-06T05:18:36.824Z,91.49
2019-01-06T05:19:36.819Z,91.28
2019-01-06T05:20:36.798Z,91.17
2019-01-06T05:21:36.817Z,91.07
2019-01-06T05:22:36.785Z,91.69
2019-01-06T05:23:36.775Z,91.49
2019-01-06T05:24:36.760Z,91.28
2019-01-06T05:25:36.751Z,91.38
2019-01-06T05:26:36.781Z,91.49
2019-01-06T05:27:36.731Z,91.28
2019-01-06T05:28:36.715Z,91.49
2019-01-06T05:29:36.706Z,91.07
2019-01-06T05:30:36.704Z,91.17
2019-01-06T05:31:36.721Z,91.90
2019-01-06T05:32:36.684Z,91.80
2019-01-06T05:33:36.751Z,92.00
2019-01-06T05:34:36.662Z,92.52
2019-01-06T05:35:36.648Z,92.72
2019-01-06T05:36:36.648Z,92.72
2019-01-06T05:37:36.642Z,92.00
2019-01-06T05:38:36.613Z,92.11
2019-01-06T05:39:36.601Z,92.67
2019-01-06T05:40:36.644Z,92.63
2019-01-06T05:41:36.625Z,92.77
2019-01-06T05:42:36.601Z,93.18
2019-01-06T05:43:36.574Z,93.14
2019-01-06T05:44:36.551Z,93.08
2019-01-06T05:45:36.559Z,93.24
2019-01-06T05:46:36.535Z,93.24
2019-01-06T05:47:36.535Z,93.70
2019-01-06T05:48:36.506Z,93.80
2019-01-06T05:49:36.517Z,93.29
2019-01-06T05:50:36.483Z,93.49
2019-01-06T05:51:36.489Z,93.70
2019-01-06T05:52:36.497Z,93.66
2019-01-06T05:53:36.450Z,93.87
2019-01-06T05:54:36.440Z,93.55
2019-01-06T05:55:36.469Z,93.60
2019-01-06T05:56:36.428Z,93.60
2019-01-06T05:57:36.425Z,93.70
2019-01-06T05:58:36.427Z,93.39
2019-01-06T05:59:36.389Z,93.70
2019-01-06T06:00:36.372Z,93.76
2019-01-06T06:01:36.363Z,93.70
2019-01-06T06:02:36.406Z,93.49
2019-01-06T06:03:36.350Z,94.07
2019-01-06T06:04:36.335Z,94.22
2019-01-06T06:05:36.326Z,94.43
2019-01-06T06:06:36.307Z,94.28
2019-01-06T06:07:36.301Z,94.12
2019-01-06T06:08:36.328Z,94.43
2019-01-06T06:09:36.278Z,94.22
2019-01-06T06:10:36.270Z,94.43
2019-01-06T06:11:36.261Z,94.63
2019-01-06T06:12:36.261Z,94.69
2019-01-06T06:13:36.256Z,94.84
2019-01-06T06:14:36.230Z,94.84
2019-01-06T06:15:36.226Z,94.73
2019-01-06T06:16:36.207Z,94.63
2019-01-06T06:17:36.191Z,94.73
2019-01-06T06:18:36.199Z,94.53
2019-01-06T06:19:36.172Z,94.43
2019-01-06T06:20:36.167Z,94.53
2019-01-06T06:21:36.149Z,95.04
2019-01-06T06:22:36.178Z,95.46
2019-01-06T06:23:36.198Z,95.46
2019-01-06T06:24:36.123Z,95.36
2019-01-06T06:25:36.107Z,95.56
2019-01-06T06:26:36.097Z,95.25
2019-01-06T06:27:36.102Z,95.36
2019-01-06T06:28:36.079Z,95.46
2019-01-06T06:29:36.087Z,95.15
2019-01-06T06:30:36.060Z,95.36
2019-01-06T06:31:36.046Z,95.81
2019-01-06T06:32:36.036Z,95.67
2019-01-06T06:33:36.022Z,95.56
2019-01-06T06:34:36.029Z,95.19
2019-01-06T06:35:36.004Z,95.25
2019-01-06T06:36:35.993Z,95.36
2019-01-06T06:37:35.981Z,95.25
2019-01-06T06:38:35.978Z,95.25
2019-01-06T06:39:35.986Z,95.04
2019-01-06T06:40:35.948Z,95.15
2019-01-06T06:41:35.943Z,95.50
2019-01-06T06:42:35.931Z,95.50
2019-01-06T06:43:35.922Z,95.36
2019-01-06T06:44:35.907Z,95.56
2019-01-06T06:45:35.930Z,95.25
2019-01-06T06:46:35.891Z,95.15
2019-01-06T06:47:35.876Z,95.36
2019-01-06T06:48:35.883Z,95.25
2019-01-06T06:49:35.852Z,95.36
2019-01-06T06:50:35.873Z,95.15
2019-01-06T06:51:35.842Z,95.40
2019-01-06T06:52:35.820Z,96.19
2019-01-06T06:53:35.809Z,95.98
2019-01-06T06:54:35.798Z,96.08
2019-01-06T06:55:35.806Z,96.19
2019-01-06T06:56:35.783Z,95.67
2019-01-06T06:57:35.774Z,95.25
2019-01-06T06:58:35.761Z,95.98
2019-01-06T06:59:35.746Z,95.87
2019-01-06T07:00:35.761Z,95.92
2019-01-06T07:01:35.747Z,95.98
2019-01-06T07:02:35.717Z,95.98
2019-01-06T07:03:35.702Z,95.87
2019-01-06T07:04:35.778Z,96.08
2019-01-06T07:05:35.745Z,96.12
2019-01-06T07:06:35.676Z,95.98
2019-01-06T07:07:35.669Z,96.19
2019-01-06T07:08:35.652Z,96.19
2019-01-06T07:09:35.645Z,95.81
2019-01-06T07:10:35.630Z,96.19
2019-01-06T07:11:35.656Z,96.12
2019-01-06T07:12:35.610Z,95.92
2019-01-06T07:13:35.602Z,96.02
2019-01-06T07:14:35.644Z,96.12
2019-01-06T07:15:35.579Z,95.87
2019-01-06T07:16:35.598Z,95.98
2019-01-06T07:17:35.553Z,96.02
2019-01-06T07:18:35.545Z,95.92
2019-01-06T07:19:35.537Z,95.87
2019-01-06T07:20:35.524Z,95.87
2019-01-06T07:21:35.517Z,95.87
2019-01-06T07:22:35.528Z,95.92
2019-01-06T07:23:35.495Z,95.92
2019-01-06T07:24:35.499Z,96.12
2019-01-06T07:25:35.476Z,96.02
2019-01-06T07:26:35.461Z,96.23
2019-01-06T07:27:35.469Z,96.02
2019-01-06T07:28:35.456Z,95.92
2019-01-06T07:29:35.435Z,96.02
2019-01-06T07:30:35.421Z,95.92
2019-01-06T07:31:35.414Z,95.71
2019-01-06T07:32:35.416Z,96.02
2019-01-06T07:33:35.398Z,96.12
2019-01-06T07:34:35.375Z,96.23
2019-01-06T07:35:35.437Z,95.81
2019-01-06T07:36:35.379Z,95.81
2019-01-06T07:37:35.406Z,96.02
2019-01-06T07:38:35.365Z,96.54
2019-01-06T07:39:35.328Z,96.64
2019-01-06T07:40:35.321Z,96.44
2019-01-06T07:41:35.309Z,96.75
2019-01-06T07:42:35.305Z,96.64
2019-01-06T07:43:35.304Z,95.92
2019-01-06T07:44:35.276Z,96.23
2019-01-06T07:45:35.256Z,96.23
2019-01-06T07:46:35.249Z,96.54
2019-01-06T07:47:35.267Z,96.64
2019-01-06T07:48:35.252Z,96.64
2019-01-06T07:49:35.218Z,96.23
2019-01-06T07:50:35.207Z,96.44
2019-01-06T07:51:35.194Z,96.23
2019-01-06T07:52:35.190Z,96.44
2019-01-06T07:53:35.173Z,96.75
2019-01-06T07:54:35.207Z,96.54
2019-01-06T07:55:35.152Z,96.64
2019-01-06T07:56:35.143Z,96.75
2019-01-06T07:57:35.134Z,96.54
2019-01-06T07:58:35.128Z,96.85
2019-01-06T07:59:35.163Z,96.85
2019-01-06T08:00:35.098Z,97.36
2019-01-06T08:01:35.090Z,96.85
2019-01-06T08:02:35.075Z,96.95
2019-01-06T08:03:35.065Z,97.31
2019-01-06T08:04:35.055Z,97.20
2019-01-06T08:05:35.068Z,96.89
2019-01-06T08:06:35.032Z,96.79
2019-01-06T08:07:35.036Z,97.62
2019-01-06T08:08:35.014Z,96.89
2019-01-06T08:09:35.002Z,97.72
2019-01-06T08:10:35.010Z,96.79
2019-01-06T08:11:34.978Z,97.72
2019-01-06T08:12:34.969Z,97.06
2019-01-06T08:13:34.961Z,96.79
2019-01-06T08:14:34.947Z,96.69
2019-01-06T08:15:34.957Z,96.89
2019-01-06T08:16:34.927Z,97.41
2019-01-06T08:17:34.913Z,97.72
2019-01-06T08:18:34.904Z,97.31
2019-01-06T08:19:34.913Z,97.00
2019-01-06T08:20:34.938Z,96.79
2019-01-06T08:21:34.882Z,97.41
2019-01-06T08:22:34.864Z,96.79
2019-01-06T08:23:34.853Z,96.79
2019-01-06T08:24:34.844Z,96.89
2019-01-06T08:25:34.830Z,97.00
2019-01-06T08:26:34.844Z,97.10
2019-01-06T08:27:34.988Z,96.69
2019-01-06T08:28:34.913Z,96.79
2019-01-06T08:29:34.915Z,96.89
2019-01-06T08:30:34.892Z,96.89
2019-01-06T08:31:34.860Z,97.16
2019-01-06T08:32:34.953Z,97.10
2019-01-06T08:33:34.749Z,97.20
2019-01-06T08:34:34.738Z,97.31
2019-01-06T08:35:34.724Z,96.54
2019-01-06T08:36:34.789Z,96.79
2019-01-06T08:37:34.815Z,97.00
2019-01-06T08:38:34.801Z,97.31
2019-01-06T08:39:34.737Z,96.54
2019-01-06T08:40:34.747Z,97.41
2019-01-06T08:41:34.660Z,97.20
2019-01-06T08:42:34.798Z,97.41
2019-01-06T08:43:34.640Z,97.20
2019-01-06T08:44:34.628Z,96.75
2019-01-06T08:45:34.660Z,97.10
2019-01-06T08:46:34.610Z,97.00
2019-01-06T08:47:34.599Z,96.79
2019-01-06T08:48:34.792Z,96.85
2019-01-06T08:49:34.579Z,96.58
2019-01-06T08:50:34.572Z,96.79
2019-01-06T08:51:34.562Z,96.79
2019-01-06T08:52:34.543Z,96.95
2019-01-06T08:53:34.557Z,96.33
2019-01-06T08:54:34.523Z,96.79
2019-01-06T08:55:34.516Z,96.37
2019-01-06T08:56:34.502Z,96.48
2019-01-06T08:57:35.011Z,96.79
2019-01-06T08:58:34.531Z,96.89
2019-01-06T08:59:34.469Z,96.95
2019-01-06T09:00:34.458Z,97.31
2019-01-06T09:01:34.448Z,97.31
2019-01-06T09:02:34.438Z,97.00
2019-01-06T09:03:35.197Z,97.10
2019-01-06T09:04:34.460Z,96.89
2019-01-06T09:05:34.407Z,96.75
2019-01-06T09:06:34.396Z,96.58
2019-01-06T09:07:34.399Z,97.10
2019-01-06T09:08:34.377Z,97.10
2019-01-06T09:09:34.392Z,97.10
2019-01-06T09:10:34.361Z,96.79
2019-01-06T09:11:34.348Z,96.75
2019-01-06T09:12:34.340Z,96.89
2019-01-06T09:13:34.347Z,97.67
2019-01-06T09:14:34.334Z,97.47
2019-01-06T09:15:34.306Z,97.67
2019-01-06T09:16:34.292Z,97.57
2019-01-06T09:17:34.279Z,97.62
2019-01-06T09:18:34.275Z,97.72
2019-01-06T09:19:34.279Z,97.57
2019-01-06T09:20:34.275Z,97.16
2019-01-06T09:21:34.235Z,97.67
2019-01-06T09:22:34.229Z,96.64
2019-01-06T09:23:34.214Z,96.75
2019-01-06T09:24:34.277Z,97.06
2019-01-06T09:25:40.974Z,97.31
2019-01-06T09:26:35.183Z,96.85
2019-01-06T09:27:34.175Z,96.89
2019-01-06T09:28:34.163Z,97.00
2019-01-06T09:29:34.192Z,96.69
2019-01-06T09:30:34.144Z,96.58
2019-01-06T09:31:34.130Z,96.54
2019-01-06T09:32:34.141Z,96.75
2019-01-06T09:33:34.112Z,97.26
2019-01-06T09:34:34.103Z,96.85
2019-01-06T09:35:34.107Z,97.26
2019-01-06T09:36:34.080Z,96.64
2019-01-06T09:37:34.066Z,96.95
2019-01-06T09:38:34.057Z,96.79
2019-01-06T09:39:34.065Z,96.58
2019-01-06T09:40:34.046Z,96.95
2019-01-06T09:41:34.034Z,96.54
2019-01-06T09:42:34.025Z,96.85
2019-01-06T09:43:34.003Z,96.54
2019-01-06T09:44:34.015Z,97.26
2019-01-06T09:45:33.982Z,96.85
2019-01-06T09:46:33.980Z,96.54
2019-01-06T09:47:33.964Z,96.75
2019-01-06T09:48:33.972Z,96.85
2019-01-06T09:49:34.014Z,97.26
2019-01-06T09:50:33.956Z,96.75
2019-01-06T09:51:33.925Z,96.75
2019-01-06T09:52:33.912Z,96.75
2019-01-06T09:53:33.900Z,97.06
2019-01-06T09:54:33.892Z,97.06
2019-01-06T09:55:33.903Z,96.95
2019-01-06T09:56:33.868Z,97.36
2019-01-06T09:57:33.862Z,96.75
2019-01-06T09:58:33.845Z,96.75
2019-01-06T09:59:33.865Z,97.36
2019-01-06T10:00:33.954Z,96.85
2019-01-06T10:01:33.817Z,97.67
2019-01-06T10:02:33.802Z,96.75
2019-01-06T10:03:33.853Z,96.95
2019-01-06T10:04:35.089Z,97.47
2019-01-06T10:05:33.816Z,97.36
2019-01-06T10:06:33.759Z,97.06
2019-01-06T10:07:33.762Z,97.26
2019-01-06T10:08:33.739Z,97.06
2019-01-06T10:09:33.737Z,97.16
2019-01-06T10:10:33.752Z,97.36
2019-01-06T10:11:33.706Z,96.75
2019-01-06T10:12:33.706Z,97.36
2019-01-06T10:13:33.697Z,97.06
2019-01-06T10:14:33.683Z,97.67
2019-01-06T10:15:33.726Z,96.75
2019-01-06T10:16:33.687Z,96.75
2019-01-06T10:17:33.646Z,96.95
2019-01-06T10:18:33.639Z,97.26
2019-01-06T10:19:33.627Z,97.06
2019-01-06T10:20:33.610Z,97.06
2019-01-06T10:21:33.624Z,96.85
2019-01-06T10:22:33.594Z,97.06
2019-01-06T10:23:33.580Z,96.75
2019-01-06T10:24:33.573Z,96.64
2019-01-06T10:25:33.615Z,96.44
2019-01-06T10:26:33.603Z,96.54
2019-01-06T10:27:33.541Z,96.44
2019-01-06T10:28:33.533Z,96.54
2019-01-06T10:29:33.523Z,96.54
2019-01-06T10:30:33.517Z,96.33
2019-01-06T10:31:33.497Z,96.49
2019-01-06T10:32:33.504Z,96.19
2019-01-06T10:33:33.480Z,96.33
2019-01-06T10:34:33.470Z,96.70
2019-01-06T10:35:33.455Z,96.59
2019-01-06T10:36:33.483Z,96.59
2019-01-06T10:37:33.480Z,96.33
2019-01-06T10:38:33.420Z,96.49
2019-01-06T10:39:34.956Z,95.98
2019-01-06T10:40:33.406Z,96.23
2019-01-06T10:41:33.391Z,96.23
2019-01-06T10:42:33.457Z,96.02
2019-01-06T10:43:33.366Z,96.44
2019-01-06T10:44:33.404Z,96.33
2019-01-06T10:45:33.365Z,96.49
2019-01-06T10:46:33.354Z,96.33
2019-01-06T10:47:33.376Z,96.80
2019-01-06T10:48:33.359Z,96.75
2019-01-06T10:49:33.305Z,96.39
2019-01-06T10:50:33.300Z,96.70
2019-01-06T10:51:33.293Z,96.75
2019-01-06T10:52:33.274Z,96.33
2019-01-06T10:53:33.282Z,96.64
2019-01-06T10:54:33.254Z,96.44
2019-01-06T10:55:33.240Z,96.23
2019-01-06T10:56:33.230Z,96.44
2019-01-06T10:57:33.262Z,96.02
2019-01-06T10:58:33.228Z,96.44
2019-01-06T10:59:33.216Z,96.44
2019-01-06T11:00:33.196Z,96.64
2019-01-06T11:01:33.181Z,96.59
2019-01-06T11:02:33.201Z,96.70
2019-01-06T11:03:33.180Z,96.59
2019-01-06T11:04:33.275Z,96.49
2019-01-06T11:05:33.140Z,96.08
2019-01-06T11:06:33.129Z,96.44
2019-01-06T11:07:33.117Z,96.75
2019-01-06T11:08:33.131Z,96.08
2019-01-06T11:09:33.095Z,95.77
2019-01-06T11:10:33.131Z,96.08
2019-01-06T11:11:33.109Z,96.59
2019-01-06T11:12:33.150Z,96.49
2019-01-06T11:13:42.035Z,96.08
2019-01-06T11:14:33.052Z,96.19
2019-01-06T11:15:33.057Z,95.77
2019-01-06T11:16:33.061Z,95.77
2019-01-06T11:17:33.028Z,95.87
2019-01-06T11:18:33.002Z,96.08
2019-01-06T11:19:33.008Z,95.87
2019-01-06T11:20:32.985Z,95.87
2019-01-06T11:21:33.026Z,96.08
2019-01-06T11:22:32.956Z,95.87
2019-01-06T11:23:32.941Z,95.98
2019-01-06T11:24:32.953Z,95.46
2019-01-06T11:25:32.922Z,95.56
2019-01-06T11:26:32.915Z,95.56
2019-01-06T11:27:32.910Z,95.56
2019-01-06T11:28:32.901Z,95.46
2019-01-06T11:29:32.905Z,96.19
2019-01-06T11:30:32.873Z,96.19
2019-01-06T11:31:32.875Z,95.52
2019-01-06T11:32:32.890Z,95.15
2019-01-06T11:33:32.846Z,95.04
2019-01-06T11:34:32.857Z,95.04
2019-01-06T11:35:32.822Z,95.15
2019-01-06T11:36:32.846Z,95.25
2019-01-06T11:37:32.883Z,95.56
2019-01-06T11:38:32.861Z,95.25
2019-01-06T11:39:32.832Z,94.90
2019-01-06T11:40:33.151Z,95.31
2019-01-06T11:41:32.880Z,95.21
2019-01-06T11:42:32.813Z,95.31
2019-01-06T11:43:33.285Z,95.52
2019-01-06T11:44:32.722Z,95.36
2019-01-06T11:45:32.751Z,95.21
2019-01-06T11:46:32.702Z,95.42
2019-01-06T11:47:32.694Z,95.42
2019-01-06T11:48:32.711Z,95.42
2019-01-06T11:49:32.675Z,95.21
2019-01-06T11:50:42.344Z,95.31
2019-01-06T11:51:47.627Z,95.21
2019-01-06T11:52:32.684Z,95.31
2019-01-06T11:53:32.623Z,94.59
2019-01-06T11:54:32.632Z,94.79
2019-01-06T11:55:32.633Z,95.00
2019-01-06T11:56:32.617Z,94.69
2019-01-06T11:57:32.591Z,95.52
2019-01-06T11:58:32.570Z,95.27
2019-01-06T11:59:32.560Z,95.06
2019-01-06T12:00:32.550Z,94.96
2019-01-06T12:01:32.567Z,94.48
2019-01-06T12:02:38.983Z,94.65
2019-01-06T12:03:33.518Z,94.13
2019-01-06T12:04:32.507Z,94.23
2019-01-06T12:05:32.555Z,94.54
2019-01-06T12:06:32.518Z,94.65
2019-01-06T12:07:32.487Z,94.44
2019-01-06T12:08:40.721Z,94.13
2019-01-06T12:09:33.454Z,94.03
2019-01-06T12:10:32.447Z,94.34
2019-01-06T12:11:32.454Z,94.65
2019-01-06T12:12:32.424Z,94.19
2019-01-06T12:13:32.445Z,93.88
2019-01-06T12:14:32.401Z,94.03
2019-01-06T12:15:32.391Z,93.57
2019-01-06T12:16:32.417Z,93.41
2019-01-06T12:17:32.378Z,92.99
2019-01-06T12:18:32.357Z,93.16
2019-01-06T12:19:33.894Z,93.16
2019-01-06T12:20:32.339Z,93.26
2019-01-06T12:21:32.350Z,93.37
2019-01-06T12:22:32.314Z,93.26
2019-01-06T12:23:32.307Z,93.37
2019-01-06T12:24:32.298Z,93.57
2019-01-06T12:25:32.287Z,92.23
2019-01-06T12:26:32.304Z,92.85
2019-01-06T12:27:32.277Z,93.37
2019-01-06T12:28:32.267Z,93.47
2019-01-06T12:29:32.247Z,92.74
2019-01-06T12:30:32.272Z,92.33
2019-01-06T12:31:32.247Z,92.29
2019-01-06T12:32:32.211Z,92.91
2019-01-06T12:33:32.203Z,93.22
2019-01-06T12:34:32.187Z,93.63
2019-01-06T12:35:32.253Z,93.53
2019-01-06T12:36:32.202Z,92.29
2019-01-06T12:37:32.155Z,92.50
2019-01-06T12:38:32.157Z,91.88
2019-01-06T12:39:32.134Z,91.26
2019-01-06T12:40:32.127Z,91.98
2019-01-06T12:41:32.122Z,91.16
2019-01-06T12:42:32.132Z,91.01
2019-01-06T12:43:32.095Z,91.22
2019-01-06T12:44:32.106Z,90.43
2019-01-06T12:45:32.072Z,90.12
2019-01-06T12:46:32.063Z,90.53
2019-01-06T12:47:32.123Z,90.64
2019-01-06T12:48:32.043Z,90.49
2019-01-06T12:49:32.028Z,90.22
2019-01-06T12:50:32.022Z,90.59
2019-01-06T12:51:32.012Z,90.02
2019-01-06T12:52:32.020Z,90.43